Atibaia, Brazil
Current Conditions -  °F | °C
As of 2:00 AM on Wednesday 28 Jan 2015 (Local Time) from SBGR Reporting Station
Light Rain Light Rain  
Wind Chill: 72°   Ceiling: Unl
Heat Index: 72°   Visibility: 6mi
Dew Point: 68°   Wind: 3mph
Humidity: 88%   Direction: 30°NNE
Pressure: 30.06"   Gusts: NA
Location:  23.12°S, 46.57°W
Report Text: SBGR 280400Z 03003KT 9999 -RA NSC 22/20 Q1018 RETS
Loading
Personal Weather Stations






























Interactive Weather Map New forecast layout! Learn more

10-Day Weather Forecast

Advertisements
Track Severe Weather on mobile